createdAt,value
2018-08-18T05:31:15.442Z,2.60
2018-08-18T05:33:52.343Z,3.13
2018-08-18T05:36:30.683Z,3.60
2018-08-18T05:39:08.883Z,3.77
2018-08-18T06:06:10.619Z,2.63
2018-08-18T06:19:02.151Z,2.00
2018-08-18T06:21:39.361Z,2.27
2018-08-18T06:24:15.668Z,2.57
2018-08-18T06:26:52.119Z,2.60
2018-08-18T06:29:28.760Z,2.17
2018-08-18T06:32:08.559Z,2.20
2018-08-18T06:34:45.681Z,2.10
2018-08-18T06:37:22.131Z,2.30
2018-08-18T06:39:59.827Z,2.83
2018-08-18T06:42:39.653Z,2.23
2018-08-18T06:45:17.980Z,2.30
2018-08-18T06:48:07.237Z,2.20
2018-08-18T06:50:43.657Z,2.17
2018-08-18T06:53:20.034Z,2.10
2018-08-18T06:55:58.552Z,2.13
2018-08-18T06:58:35.129Z,2.33
2018-08-18T07:01:11.832Z,2.10
2018-08-18T07:03:48.930Z,2.00
2018-08-18T07:16:28.379Z,1.83
2018-08-18T07:19:04.882Z,2.00
2018-08-18T07:21:42.100Z,8.23
2018-08-18T07:24:18.476Z,2.00
2018-08-18T07:26:54.891Z,2.10
2018-08-18T07:29:51.775Z,2.03
2018-08-18T07:32:28.629Z,1.37
2018-08-18T07:35:05.339Z,1.93
2018-08-18T07:37:42.295Z,1.60
2018-08-18T07:40:22.235Z,2.13
2018-08-18T07:43:02.831Z,1.83
2018-08-18T07:45:39.657Z,1.63
2018-08-18T07:48:17.120Z,2.80
2018-08-18T07:50:53.478Z,1.80
2018-08-18T07:53:29.895Z,1.63
2018-08-18T07:56:06.252Z,1.40
2018-08-18T07:58:42.591Z,2.67
2018-08-18T08:01:19.036Z,1.53
2018-08-18T08:03:55.907Z,1.90
2018-08-18T08:06:32.471Z,1.50
2018-08-18T08:09:09.034Z,1.63
2018-08-18T08:11:46.707Z,1.63
2018-08-18T08:14:23.104Z,2.00
2018-08-18T08:16:59.616Z,1.60
2018-08-18T08:19:36.089Z,2.47
2018-08-18T08:22:13.631Z,1.80
2018-08-18T08:24:50.157Z,2.10
2018-08-18T08:27:26.709Z,2.33
2018-08-18T08:30:03.208Z,2.67
2018-08-18T08:32:39.885Z,2.30
2018-08-18T08:35:16.332Z,2.70
2018-08-18T08:37:54.867Z,2.00
2018-08-18T08:40:31.164Z,3.50
2018-08-18T08:43:07.778Z,2.53
2018-08-18T08:45:44.163Z,2.57
2018-08-18T08:48:20.628Z,2.87
2018-08-18T09:35:55.568Z,2.93
2018-08-18T09:38:32.013Z,2.73
2018-08-18T09:47:50.148Z,2.27
2018-08-18T09:50:27.135Z,2.63
2018-08-18T09:53:03.493Z,2.00
2018-08-18T09:55:39.908Z,2.20
2018-08-18T09:58:16.395Z,2.87
2018-08-18T10:00:53.045Z,2.50
2018-08-18T10:03:29.375Z,2.93
2018-08-18T10:06:05.877Z,2.60
2018-08-18T10:08:42.336Z,2.57
2018-08-18T10:11:18.676Z,3.00
2018-08-18T10:13:55.219Z,2.60
2018-08-18T10:16:31.713Z,2.40
2018-08-18T10:19:08.336Z,2.30
2018-08-18T10:21:45.228Z,1.73
2018-08-18T10:24:21.690Z,2.27
2018-08-18T10:27:03.374Z,2.10
2018-08-18T10:29:39.960Z,2.20
2018-08-18T10:32:16.863Z,2.40
2018-08-18T10:34:53.585Z,2.80
2018-08-18T10:37:29.988Z,2.30
2018-08-18T10:40:10.498Z,2.83
2018-08-18T10:42:46.830Z,3.37
2018-08-18T10:45:23.231Z,3.30
2018-08-18T10:47:59.570Z,3.47
2018-08-18T10:51:20.518Z,84.80
2018-08-18T10:53:57.058Z,51.07
2018-08-18T10:56:33.396Z,54.33
2018-08-18T10:59:20.657Z,57.53
2018-08-18T11:02:05.996Z,20.07
2018-08-18T11:04:42.254Z,2.93
2018-08-18T11:07:20.075Z,2.90
2018-08-18T11:09:56.671Z,2.93
2018-08-18T11:12:37.017Z,2.40
2018-08-18T11:15:13.972Z,2.40
2018-08-18T11:17:50.533Z,2.77
2018-08-18T11:20:28.349Z,2.60
2018-08-18T11:23:17.350Z,2.23
2018-08-18T11:25:54.624Z,2.60
2018-08-18T11:28:31.129Z,2.50
2018-08-18T11:31:07.515Z,2.40
2018-08-18T11:33:44.931Z,2.80
2018-08-18T11:36:21.339Z,3.03
2018-08-18T11:38:58.650Z,2.57
2018-08-18T11:41:35.222Z,2.60
2018-08-18T11:44:11.819Z,2.70
2018-08-18T11:46:49.924Z,2.50
2018-08-18T11:49:26.410Z,3.00
2018-08-18T11:52:03.249Z,2.67
2018-08-18T11:54:39.733Z,3.30
2018-08-18T11:57:16.199Z,3.67
2018-08-18T11:59:52.651Z,3.40
2018-08-18T12:02:30.313Z,3.00
2018-08-18T12:05:06.827Z,3.13
2018-08-18T12:07:43.277Z,3.20
2018-08-18T12:10:19.767Z,2.87
2018-08-18T12:12:56.095Z,2.90
2018-08-18T12:15:33.963Z,3.03
2018-08-18T12:18:10.229Z,2.67
2018-08-18T12:20:46.731Z,2.90
2018-08-18T12:23:23.337Z,3.00
2018-08-18T12:26:03.928Z,2.60
2018-08-18T12:28:44.426Z,2.80
2018-08-18T12:31:23.341Z,3.23
2018-08-18T12:33:59.830Z,2.20
2018-08-18T12:36:36.247Z,2.67
2018-08-18T12:39:12.834Z,2.40
2018-08-18T12:41:49.298Z,2.00
2018-08-18T12:44:31.012Z,2.67
2018-08-18T12:47:07.616Z,2.40
2018-08-18T12:49:44.243Z,2.73
2018-08-18T12:54:45.855Z,2.50
2018-08-18T12:57:38.990Z,2.53
2018-08-18T13:00:15.323Z,2.57
2018-08-18T13:02:55.164Z,2.00
2018-08-18T13:43:14.845Z,1.90
2018-08-18T13:45:51.362Z,1.70
2018-08-18T13:48:27.743Z,2.13
2018-08-18T14:34:59.888Z,2.00
2018-08-18T14:38:13.452Z,2.10
2018-08-18T14:40:50.045Z,1.70
2018-08-18T14:43:33.618Z,1.57
2018-08-18T15:48:45.432Z,1.87
2018-08-18T15:55:08.991Z,1.63
2018-08-18T15:57:45.352Z,1.80
2018-08-18T16:00:33.751Z,1.50
2018-08-18T16:03:12.132Z,1.73
2018-08-18T16:05:48.539Z,2.37
2018-08-18T16:08:24.956Z,2.07
2018-08-18T16:11:01.483Z,1.97
2018-08-18T16:13:38.079Z,1.57
2018-08-18T16:16:14.403Z,1.80
2018-08-18T16:18:58.579Z,1.60
2018-08-18T16:21:35.239Z,1.87
2018-08-18T16:24:49.745Z,1.60
2018-08-18T16:27:26.724Z,1.63
2018-08-18T16:30:03.077Z,1.90
2018-08-18T16:32:39.376Z,2.00
2018-08-18T16:35:15.841Z,2.17
2018-08-18T16:37:52.404Z,2.77
2018-08-18T16:40:28.704Z,2.47
2018-08-18T16:43:07.554Z,2.00
2018-08-18T16:45:44.153Z,3.33
2018-08-18T16:48:21.368Z,2.57
2018-08-18T16:50:57.698Z,2.50
2018-08-18T16:53:35.157Z,2.43
2018-08-18T16:56:27.414Z,2.10
2018-08-18T16:59:04.632Z,1.50
2018-08-18T17:01:41.093Z,1.97
2018-08-18T17:04:23.609Z,1.80
2018-08-18T17:07:01.169Z,1.90
2018-08-18T17:09:41.997Z,2.93
2018-08-18T17:12:25.644Z,2.80
2018-08-18T17:15:01.985Z,2.60
2018-08-18T17:17:38.457Z,2.57
2018-08-18T17:20:15.039Z,2.00
2018-08-18T17:22:51.455Z,2.37
